Time;durP1;ratioP1;P1;durP2;ratioP2;P2;SDS_P1;SDS_P2;PMS_P1;PMS_P2;Temp;Humidity;BMP_temperature;BMP_pressure;BME280_temperature;BME280_humidity;BME280_pressure;Samples;Min_cycle;Max_cycle;Signal;HPM_P1;HPM_P2
2023/04/07 00:01:15;;;;;;;34.05;21.02;;;6.70;99.90;;;;;;5034063;28;20087;-69
2023/04/07 00:03:42;;;;;;;31.75;20.15;;;6.70;99.90;;;;;;5033519;28;20108;-69
2023/04/07 00:06:08;;;;;;;32.03;20.25;;;6.70;99.90;;;;;;5033250;28;20033;-69
2023/04/07 00:08:33;;;;;;;33.63;20.38;;;6.70;99.90;;;;;;5033516;28;20025;-69
2023/04/07 00:10:59;;;;;;;32.58;20.27;;;6.70;99.90;;;;;;5033888;28;20121;-69
2023/04/07 00:13:25;;;;;;;31.65;19.60;;;6.70;99.90;;;;;;5032901;28;20037;-70
2023/04/07 00:15:51;;;;;;;35.65;20.90;;;6.70;99.90;;;;;;5033739;28;20032;-69
2023/04/07 00:18:17;;;;;;;31.10;19.35;;;6.70;99.90;;;;;;5033708;28;20029;-69
2023/04/07 00:20:42;;;;;;;31.90;19.95;;;6.70;99.90;;;;;;5033212;28;20387;-69
2023/04/07 00:23:08;;;;;;;34.97;20.20;;;6.70;99.90;;;;;;5033838;28;20494;-69
2023/04/07 00:25:33;;;;;;;33.47;19.88;;;6.60;99.90;;;;;;5033324;28;20112;-69
2023/04/07 00:27:59;;;;;;;35.60;20.45;;;6.70;99.90;;;;;;5034802;28;20045;-69
2023/04/07 00:30:25;;;;;;;33.47;20.27;;;6.70;99.90;;;;;;5036986;28;20513;-69
2023/04/07 00:32:51;;;;;;;37.15;20.88;;;6.70;99.90;;;;;;5036589;28;20111;-69
2023/04/07 00:35:16;;;;;;;32.47;20.55;;;6.70;99.90;;;;;;5036987;28;20033;-69
2023/04/07 00:37:42;;;;;;;32.75;20.23;;;6.60;99.90;;;;;;5037003;28;20036;-70
2023/04/07 00:40:08;;;;;;;34.38;20.30;;;6.60;99.90;;;;;;5037317;28;20060;-69
2023/04/07 00:42:34;;;;;;;33.15;20.40;;;6.70;99.90;;;;;;5037349;28;20025;-69
2023/04/07 00:45:00;;;;;;;36.10;20.33;;;6.70;99.90;;;;;;5037276;28;20036;-69
2023/04/07 00:47:26;;;;;;;40.03;22.05;;;6.70;99.90;;;;;;5037167;28;20099;-69
2023/04/07 00:49:51;;;;;;;35.67;19.95;;;6.70;99.90;;;;;;5036978;28;20055;-69
2023/04/07 00:52:18;;;;;;;35.28;20.90;;;6.70;99.90;;;;;;5036772;28;20033;-70
2023/04/07 00:54:45;;;;;;;34.22;20.63;;;6.70;99.90;;;;;;5037079;28;20379;-70
2023/04/07 00:57:11;;;;;;;35.05;20.23;;;6.70;99.90;;;;;;5036853;28;20079;-69
2023/04/07 00:59:37;;;;;;;40.72;21.27;;;6.70;99.90;;;;;;5036726;28;20030;-69
2023/04/07 01:02:10;;;;;;;36.15;20.83;;;6.70;99.90;;;;;;5036519;28;20060;-70
2023/04/07 01:05:02;;;;;;;33.85;20.52;;;6.70;99.90;;;;;;5036426;28;20483;-69
2023/04/07 01:07:34;;;;;;;35.65;20.48;;;6.70;99.90;;;;;;5035852;28;20036;-69
2023/04/07 01:10:03;;;;;;;36.63;20.88;;;6.70;99.90;;;;;;5036603;28;20127;-69
2023/04/07 01:12:41;;;;;;;34.55;20.25;;;6.70;99.90;;;;;;5036245;28;20386;-69
2023/04/07 01:15:10;;;;;;;33.28;20.45;;;6.70;99.90;;;;;;5036654;28;20083;-69
2023/04/07 01:17:41;;;;;;;33.00;20.35;;;6.70;99.90;;;;;;5036664;28;20057;-69
2023/04/07 01:20:09;;;;;;;34.25;20.77;;;6.70;99.90;;;;;;5036006;28;20032;-69
2023/04/07 01:22:41;;;;;;;35.72;20.58;;;6.70;99.90;;;;;;5035904;28;20084;-69
2023/04/07 01:25:37;;;;;;;35.92;21.95;;;6.70;99.90;;;;;;5036128;28;20053;-69
2023/04/07 01:30:42;;;;;;;34.72;20.38;;;6.70;99.90;;;;;;5111963;27;20438;-69
2023/04/07 01:33:10;;;;;;;32.15;20.75;;;6.70;99.90;;;;;;5112089;28;20042;-68
2023/04/07 01:35:37;;;;;;;39.60;21.17;;;6.70;99.90;;;;;;5111221;28;20034;-69
2023/04/07 01:38:04;;;;;;;35.25;21.35;;;6.70;99.90;;;;;;5111910;28;20019;-68
2023/04/07 01:40:32;;;;;;;36.33;20.45;;;6.80;99.90;;;;;;5111971;28;20023;-68
2023/04/07 01:42:59;;;;;;;33.45;20.50;;;6.80;99.90;;;;;;5111295;28;20519;-68
2023/04/07 01:45:26;;;;;;;37.17;20.75;;;6.80;99.90;;;;;;5111515;28;20046;-68
2023/04/07 01:47:53;;;;;;;37.65;21.95;;;6.80;99.90;;;;;;5111343;28;20568;-68
2023/04/07 01:50:20;;;;;;;34.80;20.92;;;6.80;99.90;;;;;;5111524;28;20469;-68
2023/04/07 01:52:46;;;;;;;37.88;21.45;;;6.80;99.90;;;;;;5111722;28;20023;-68
2023/04/07 01:55:12;;;;;;;38.28;22.52;;;6.70;99.90;;;;;;5111478;28;20365;-68
2023/04/07 01:57:37;;;;;;;38.38;22.30;;;6.70;99.90;;;;;;5111784;28;20035;-68
2023/04/07 02:00:04;;;;;;;35.15;20.60;;;6.70;99.90;;;;;;5111162;28;20027;-68
2023/04/07 02:02:30;;;;;;;37.70;22.40;;;6.70;99.90;;;;;;5111412;28;20122;-68
2023/04/07 02:05:02;;;;;;;38.63;22.00;;;6.70;99.90;;;;;;5110708;28;20028;-68
2023/04/07 02:07:39;;;;;;;38.92;22.38;;;6.80;99.90;;;;;;5111810;28;20111;-68
2023/04/07 02:10:09;;;;;;;38.10;22.15;;;6.80;99.90;;;;;;5111188;28;20031;-68
2023/04/07 02:12:37;;;;;;;43.90;23.08;;;6.70;99.90;;;;;;5111267;28;20047;-68
2023/04/07 02:15:03;;;;;;;39.15;21.98;;;6.70;99.90;;;;;;5111152;28;20032;-69
2023/04/07 02:17:31;;;;;;;41.28;22.88;;;6.70;99.90;;;;;;5111632;28;20016;-68
2023/04/07 02:19:58;;;;;;;39.88;21.40;;;6.80;99.90;;;;;;5110949;28;20035;-68
2023/04/07 02:22:24;;;;;;;39.72;22.05;;;6.80;99.90;;;;;;5111015;28;20051;-69
2023/04/07 02:24:50;;;;;;;41.05;21.35;;;6.80;99.90;;;;;;5110951;28;20089;-68
2023/04/07 02:27:16;;;;;;;37.15;22.00;;;6.70;99.90;;;;;;5110848;28;20119;-68
2023/04/07 02:29:41;;;;;;;39.88;22.98;;;6.80;99.90;;;;;;5110152;28;20047;-68
2023/04/07 02:32:07;;;;;;;38.42;22.65;;;6.70;99.90;;;;;;5111039;28;20111;-68
2023/04/07 02:34:32;;;;;;;42.70;22.42;;;6.70;99.90;;;;;;5111001;28;20474;-68
2023/04/07 02:36:58;;;;;;;39.20;22.70;;;6.70;99.90;;;;;;5110993;28;20055;-68
2023/04/07 02:39:23;;;;;;;37.70;21.83;;;6.70;99.90;;;;;;5110299;28;20499;-68
2023/04/07 02:41:49;;;;;;;38.80;21.55;;;6.80;99.90;;;;;;5098453;28;20119;-68
2023/04/07 02:44:15;;;;;;;38.33;22.00;;;6.80;99.90;;;;;;5097252;28;20119;-68
2023/04/07 02:46:40;;;;;;;39.22;21.88;;;6.80;99.90;;;;;;5096538;28;20028;-67
2023/04/07 02:49:06;;;;;;;43.55;23.40;;;6.80;99.90;;;;;;5096126;28;20028;-68
2023/04/07 02:51:31;;;;;;;39.80;22.92;;;6.80;99.90;;;;;;5096679;28;20530;-68
2023/04/07 02:53:57;;;;;;;42.28;21.63;;;6.80;99.90;;;;;;5096805;28;20492;-69
2023/04/07 02:56:22;;;;;;;41.53;21.10;;;6.80;99.90;;;;;;5096661;28;20086;-69
2023/04/07 02:58:48;;;;;;;41.78;21.80;;;6.80;99.90;;;;;;5096844;28;20032;-68
2023/04/07 03:01:13;;;;;;;37.53;22.58;;;6.80;99.90;;;;;;5096654;28;20027;-69
2023/04/07 03:03:41;;;;;;;43.95;22.63;;;6.80;99.90;;;;;;5096695;28;20032;-67
2023/04/07 03:06:06;;;;;;;35.63;21.50;;;6.80;99.90;;;;;;5096771;28;20031;-67
2023/04/07 03:08:32;;;;;;;37.28;20.88;;;6.80;99.90;;;;;;5096387;28;20040;-67
2023/04/07 03:10:57;;;;;;;36.38;21.23;;;6.80;99.90;;;;;;5096671;28;20436;-67
2023/04/07 03:13:23;;;;;;;37.00;21.08;;;6.70;99.90;;;;;;5096431;28;20107;-67
2023/04/07 03:15:48;;;;;;;37.33;21.05;;;6.70;99.90;;;;;;5096269;28;20491;-67
2023/04/07 03:18:14;;;;;;;34.88;19.15;;;6.80;99.90;;;;;;5096147;28;20487;-67
2023/04/07 03:20:41;;;;;;;34.78;19.88;;;6.80;99.90;;;;;;5096537;28;20115;-67
2023/04/07 03:23:07;;;;;;;32.38;18.48;;;6.80;99.90;;;;;;5096269;28;20032;-68
2023/04/07 03:25:33;;;;;;;31.60;18.10;;;6.80;99.90;;;;;;5096330;28;20032;-67
2023/04/07 03:27:58;;;;;;;35.53;18.48;;;6.80;99.90;;;;;;5096378;28;20024;-67
2023/04/07 03:30:24;;;;;;;32.67;17.75;;;6.70;99.90;;;;;;5095062;28;20124;-67
2023/04/07 03:32:50;;;;;;;32.22;18.48;;;6.80;99.90;;;;;;5095268;28;20495;-67
2023/04/07 03:35:15;;;;;;;32.97;17.88;;;6.70;99.90;;;;;;5096058;28;20020;-67
2023/04/07 03:37:41;;;;;;;32.15;18.75;;;6.80;99.90;;;;;;5094949;28;20043;-67
2023/04/07 03:40:07;;;;;;;31.23;17.70;;;6.80;99.90;;;;;;5094974;28;20067;-68
2023/04/07 03:42:32;;;;;;;31.02;18.30;;;6.80;99.90;;;;;;5095660;28;20077;-67
2023/04/07 03:44:58;;;;;;;31.92;17.25;;;6.80;99.90;;;;;;5096027;28;20404;-68
2023/04/07 03:47:23;;;;;;;30.58;17.75;;;6.80;99.90;;;;;;5095694;28;20090;-68
2023/04/07 03:49:49;;;;;;;30.58;17.40;;;6.80;99.90;;;;;;5095234;28;20062;-68
2023/04/07 03:52:15;;;;;;;28.45;17.10;;;6.80;99.90;;;;;;5094390;28;20039;-68
2023/04/07 03:54:41;;;;;;;31.23;17.58;;;6.80;99.90;;;;;;5095320;28;20038;-68
2023/04/07 03:57:06;;;;;;;28.63;17.17;;;6.80;99.90;;;;;;5095271;28;20036;-68
2023/04/07 03:59:32;;;;;;;28.17;16.92;;;6.80;99.90;;;;;;5095713;28;20043;-68
2023/04/07 04:01:58;;;;;;;27.55;16.42;;;6.80;99.90;;;;;;5095456;28;20032;-68
2023/04/07 04:04:23;;;;;;;27.20;15.95;;;6.80;99.90;;;;;;5095680;28;20032;-68
2023/04/07 04:06:49;;;;;;;27.33;17.00;;;6.80;99.90;;;;;;5095570;28;20111;-68
2023/04/07 04:09:15;;;;;;;27.27;16.38;;;6.80;99.90;;;;;;5094658;28;20032;-68
2023/04/07 04:11:41;;;;;;;33.20;17.38;;;6.80;99.90;;;;;;5094846;28;20061;-69
2023/04/07 04:14:06;;;;;;;29.50;17.40;;;6.70;99.90;;;;;;5094870;28;20024;-68
2023/04/07 04:16:34;;;;;;;31.27;18.02;;;6.70;99.90;;;;;;5094985;28;20503;-68
2023/04/07 04:19:00;;;;;;;31.83;17.40;;;6.80;99.90;;;;;;5094732;28;20028;-68
2023/04/07 04:21:26;;;;;;;28.63;17.42;;;6.80;99.90;;;;;;5094784;28;20024;-69
2023/04/07 04:23:52;;;;;;;26.42;17.33;;;6.80;99.90;;;;;;5094924;28;20481;-68
2023/04/07 04:26:17;;;;;;;28.15;17.38;;;6.80;99.90;;;;;;5095053;28;20028;-69
2023/04/07 04:28:43;;;;;;;30.85;17.70;;;6.80;99.90;;;;;;5093680;28;20044;-69
2023/04/07 04:31:08;;;;;;;30.42;17.58;;;6.80;99.90;;;;;;5094417;28;20043;-69
2023/04/07 04:33:34;;;;;;;28.42;17.58;;;6.80;99.90;;;;;;5094581;28;20024;-69
2023/04/07 04:36:00;;;;;;;31.02;16.52;;;6.80;99.90;;;;;;5094862;28;20110;-69
2023/04/07 04:38:25;;;;;;;27.80;17.00;;;6.80;99.90;;;;;;5095071;28;20035;-69
2023/04/07 04:40:51;;;;;;;28.17;17.02;;;6.80;99.90;;;;;;5094547;28;20043;-69
2023/04/07 04:43:16;;;;;;;26.88;17.10;;;6.80;99.90;;;;;;5094164;28;20039;-69
2023/04/07 04:45:42;;;;;;;27.63;16.55;;;6.80;99.90;;;;;;5094392;28;20051;-69
2023/04/07 04:48:08;;;;;;;26.83;16.08;;;6.70;99.90;;;;;;5094481;28;20359;-69
2023/04/07 04:50:33;;;;;;;27.73;16.08;;;6.80;99.90;;;;;;5094318;28;20073;-69
2023/04/07 04:52:59;;;;;;;27.30;15.73;;;6.80;99.90;;;;;;5094785;28;20396;-69
2023/04/07 04:55:24;;;;;;;26.70;15.02;;;6.80;99.90;;;;;;5094514;28;20034;-69
2023/04/07 04:57:50;;;;;;;22.65;14.55;;;6.80;99.90;;;;;;5094664;28;20483;-69
2023/04/07 05:00:16;;;;;;;23.70;14.77;;;6.80;99.90;;;;;;5094629;28;20028;-69
2023/04/07 05:02:41;;;;;;;24.63;14.75;;;6.80;99.90;;;;;;5094578;28;20085;-69
2023/04/07 05:05:07;;;;;;;21.98;14.23;;;6.80;99.90;;;;;;5093905;28;20405;-69
2023/04/07 05:07:33;;;;;;;22.38;14.07;;;6.70;99.90;;;;;;5094238;28;20027;-69
2023/04/07 05:09:59;;;;;;;24.67;14.45;;;6.80;99.90;;;;;;5093852;28;20024;-69
2023/04/07 05:12:24;;;;;;;22.40;14.30;;;6.80;99.90;;;;;;5093664;28;20090;-69
2023/04/07 05:14:50;;;;;;;22.38;14.00;;;6.70;99.90;;;;;;5094513;28;20020;-69
2023/04/07 05:17:15;;;;;;;20.88;13.45;;;6.70;99.90;;;;;;5093921;28;20024;-69
2023/04/07 05:19:41;;;;;;;23.98;15.32;;;6.80;99.90;;;;;;5094516;28;20081;-69
2023/04/07 05:22:07;;;;;;;22.52;14.40;;;6.70;99.90;;;;;;5094046;28;20119;-69
2023/04/07 05:24:32;;;;;;;26.27;15.38;;;6.70;99.90;;;;;;5093862;28;20036;-69
2023/04/07 05:26:58;;;;;;;25.33;14.95;;;6.70;99.90;;;;;;5094271;28;20105;-69
2023/04/07 05:29:23;;;;;;;20.05;14.40;;;6.70;99.90;;;;;;5093061;28;20040;-69
2023/04/07 05:31:49;;;;;;;21.67;14.68;;;6.70;99.90;;;;;;5094290;28;20028;-70
2023/04/07 05:34:15;;;;;;;22.38;14.18;;;6.70;99.90;;;;;;5093434;28;20028;-70
2023/04/07 05:36:40;;;;;;;21.90;14.55;;;6.80;99.90;;;;;;5094266;28;20107;-70
2023/04/07 05:39:06;;;;;;;25.85;14.30;;;6.80;99.90;;;;;;5093497;28;20456;-69
2023/04/07 05:41:31;;;;;;;19.48;13.45;;;6.80;99.90;;;;;;5093935;28;20024;-69
2023/04/07 05:43:57;;;;;;;20.42;13.77;;;6.80;99.90;;;;;;5094188;28;20032;-69
2023/04/07 05:46:22;;;;;;;20.63;13.82;;;6.80;99.90;;;;;;5093167;28;20028;-69
2023/04/07 05:48:48;;;;;;;20.75;13.15;;;6.80;99.90;;;;;;5094118;28;20434;-69
2023/04/07 05:51:14;;;;;;;21.65;12.82;;;6.80;99.90;;;;;;5093883;28;20028;-70
2023/04/07 05:53:39;;;;;;;21.80;12.50;;;6.80;99.90;;;;;;5094202;28;20114;-69
2023/04/07 05:56:06;;;;;;;19.63;12.50;;;6.90;99.90;;;;;;5093462;28;20056;-69
2023/04/07 05:58:31;;;;;;;18.08;12.45;;;6.80;99.90;;;;;;5093819;28;20527;-70
2023/04/07 06:00:57;;;;;;;19.10;12.32;;;6.80;99.90;;;;;;5093473;28;20139;-69
2023/04/07 06:03:22;;;;;;;19.40;11.95;;;6.80;99.90;;;;;;5093946;28;20028;-69
2023/04/07 06:05:49;;;;;;;17.42;11.73;;;6.90;99.90;;;;;;5093725;28;20024;-70
2023/04/07 06:08:14;;;;;;;18.33;11.63;;;6.90;99.90;;;;;;5093699;28;20023;-70
2023/04/07 06:10:40;;;;;;;16.23;10.63;;;6.90;99.90;;;;;;5093067;28;20020;-70
2023/04/07 06:13:06;;;;;;;14.50;9.85;;;7.00;99.90;;;;;;5093605;28;20381;-70
2023/04/07 06:15:32;;;;;;;14.88;9.98;;;7.00;99.90;;;;;;5093942;28;20032;-70
2023/04/07 06:17:58;;;;;;;14.65;9.82;;;7.00;99.90;;;;;;5097465;28;20055;-70
2023/04/07 06:20:24;;;;;;;12.45;9.57;;;7.00;99.90;;;;;;5097191;28;20059;-70
2023/04/07 06:22:49;;;;;;;14.75;10.23;;;7.00;99.90;;;;;;5097103;28;20445;-69
2023/04/07 06:25:15;;;;;;;14.27;9.50;;;7.00;99.90;;;;;;5097618;28;20110;-70
2023/04/07 06:27:40;;;;;;;14.43;9.50;;;7.00;99.90;;;;;;5097585;28;20028;-70
2023/04/07 06:30:07;;;;;;;13.63;9.40;;;7.10;99.90;;;;;;5096382;28;20048;-70
2023/04/07 06:32:32;;;;;;;13.85;8.82;;;7.10;99.90;;;;;;5097217;28;20427;-70
2023/04/07 06:34:58;;;;;;;13.27;8.32;;;7.10;99.90;;;;;;5097505;28;20047;-70
2023/04/07 06:37:24;;;;;;;10.98;8.25;;;7.10;99.90;;;;;;5096454;28;20032;-70
2023/04/07 06:39:50;;;;;;;12.18;8.45;;;7.00;99.90;;;;;;5096953;28;20024;-69
2023/04/07 06:42:16;;;;;;;11.20;7.88;;;7.00;99.90;;;;;;5097314;28;20031;-70
2023/04/07 06:44:41;;;;;;;14.75;9.10;;;7.10;99.90;;;;;;5096663;28;20024;-70
2023/04/07 06:47:07;;;;;;;12.10;8.20;;;7.10;99.90;;;;;;5097242;28;20031;-69
2023/04/07 06:49:33;;;;;;;14.30;9.55;;;7.10;99.90;;;;;;5096778;28;20028;-70
2023/04/07 06:51:59;;;;;;;15.60;8.65;;;7.20;99.90;;;;;;5096476;28;20086;-70
2023/04/07 06:54:24;;;;;;;13.38;8.68;;;7.20;99.90;;;;;;5096975;28;20055;-69
2023/04/07 06:56:50;;;;;;;15.50;8.88;;;7.30;99.90;;;;;;5096458;28;20107;-70
2023/04/07 06:59:16;;;;;;;13.73;8.43;;;7.40;99.90;;;;;;5096955;28;20031;-70
2023/04/07 07:01:42;;;;;;;11.93;8.13;;;7.40;99.90;;;;;;5096637;28;20067;-70
2023/04/07 07:04:08;;;;;;;11.40;8.23;;;7.40;99.90;;;;;;5096549;28;20362;-70
2023/04/07 07:06:34;;;;;;;13.73;7.82;;;7.50;99.90;;;;;;5096341;28;20042;-70
2023/04/07 07:08:59;;;;;;;11.98;7.90;;;7.50;99.90;;;;;;5095846;28;20038;-70
2023/04/07 07:11:26;;;;;;;12.48;8.23;;;7.50;99.90;;;;;;5096644;28;20531;-70
2023/04/07 07:13:51;;;;;;;11.68;8.43;;;7.50;99.90;;;;;;5096483;28;20028;-70
2023/04/07 07:16:17;;;;;;;15.50;9.50;;;7.60;99.90;;;;;;5096593;28;20035;-70
2023/04/07 07:18:42;;;;;;;13.68;9.55;;;7.70;99.90;;;;;;5096371;28;20062;-70
2023/04/07 07:21:08;;;;;;;12.45;8.88;;;7.80;99.90;;;;;;5096121;28;20493;-70
2023/04/07 07:23:33;;;;;;;11.73;7.80;;;7.70;99.90;;;;;;5096068;28;20016;-70
2023/04/07 07:25:59;;;;;;;13.57;8.25;;;7.70;99.90;;;;;;5095372;28;20020;-70
2023/04/07 07:28:25;;;;;;;11.27;7.45;;;7.70;99.90;;;;;;5096260;28;20032;-70
2023/04/07 07:30:50;;;;;;;11.07;7.32;;;7.70;99.90;;;;;;5095182;28;20408;-70
2023/04/07 07:33:16;;;;;;;12.45;7.70;;;7.70;99.90;;;;;;5095138;28;20465;-70
2023/04/07 07:35:41;;;;;;;10.27;6.72;;;7.80;99.90;;;;;;5096209;28;20039;-70
2023/04/07 07:38:07;;;;;;;11.20;6.82;;;8.00;99.90;;;;;;5095950;28;20028;-70
2023/04/07 07:40:33;;;;;;;11.95;7.13;;;8.00;99.90;;;;;;5095370;28;20032;-70
2023/04/07 07:42:59;;;;;;;10.63;7.05;;;8.10;99.90;;;;;;5095677;28;20037;-70
2023/04/07 07:45:25;;;;;;;10.55;6.72;;;8.10;99.90;;;;;;5095868;28;20119;-70
2023/04/07 07:47:51;;;;;;;9.88;5.85;;;8.00;99.90;;;;;;5095166;28;20118;-70
2023/04/07 07:50:16;;;;;;;10.02;6.22;;;8.00;99.90;;;;;;5095464;28;20028;-70
2023/04/07 07:52:42;;;;;;;10.07;5.75;;;8.10;99.90;;;;;;5095689;28;20189;-70
2023/04/07 07:55:08;;;;;;;7.15;6.18;;;8.10;99.90;;;;;;5095375;28;20077;-70
2023/04/07 07:57:35;;;;;;;6.57;4.97;;;8.30;99.90;;;;;;5095599;28;20028;-70
2023/04/07 08:00:00;;;;;;;6.72;5.10;;;8.20;99.90;;;;;;5095555;28;20497;-70
2023/04/07 08:02:30;;;;;;;8.02;5.22;;;8.10;99.90;;;;;;5095179;28;20032;-71
2023/04/07 08:04:56;;;;;;;8.07;5.47;;;8.00;99.90;;;;;;5095667;28;20374;-71
2023/04/07 08:07:22;;;;;;;5.95;4.90;;;8.00;99.90;;;;;;5095603;28;20035;-71
2023/04/07 08:09:48;;;;;;;6.90;4.40;;;8.00;99.90;;;;;;5094172;28;20032;-70
2023/04/07 08:12:14;;;;;;;6.78;4.75;;;8.10;99.90;;;;;;5094993;28;20051;-71
2023/04/07 08:14:40;;;;;;;6.63;4.85;;;8.20;99.90;;;;;;5095458;28;20048;-71
2023/04/07 08:17:05;;;;;;;5.20;4.35;;;8.40;99.90;;;;;;5095456;28;20102;-71
2023/04/07 08:19:31;;;;;;;5.82;4.40;;;8.30;99.90;;;;;;5095167;28;20127;-71
2023/04/07 08:21:57;;;;;;;4.53;3.78;;;8.40;99.90;;;;;;5095372;28;20090;-71
2023/04/07 08:24:22;;;;;;;5.97;4.57;;;8.40;99.90;;;;;;5094982;28;20050;-71
2023/04/07 08:26:48;;;;;;;5.30;4.10;;;8.40;99.90;;;;;;5094980;28;20115;-71
2023/04/07 08:29:14;;;;;;;4.57;4.10;;;8.40;99.90;;;;;;5094599;28;20079;-70
2023/04/07 08:31:40;;;;;;;5.25;4.15;;;8.30;99.90;;;;;;5094689;28;20454;-71
2023/04/07 08:34:06;;;;;;;4.63;4.20;;;8.40;99.90;;;;;;5094601;28;20020;-71
2023/04/07 08:36:31;;;;;;;4.95;4.40;;;8.50;99.90;;;;;;5094410;28;20024;-71
2023/04/07 08:38:59;;;;;;;7.13;4.82;;;8.40;99.90;;;;;;5094312;28;20389;-71
2023/04/07 08:41:32;;;;;;;6.65;4.10;;;8.50;99.90;;;;;;5094349;28;20028;-71
2023/04/07 08:44:00;;;;;;;6.68;4.72;;;8.50;99.90;;;;;;5094560;28;20054;-71
2023/04/07 08:46:26;;;;;;;5.13;4.30;;;8.50;99.90;;;;;;5094337;28;20618;-71
2023/04/07 08:48:55;;;;;;;5.07;4.22;;;8.50;99.90;;;;;;5094290;28;20105;-70
2023/04/07 08:51:28;;;;;;;6.00;4.63;;;8.70;99.90;;;;;;5094369;28;20020;-71
2023/04/07 08:54:00;;;;;;;5.47;4.30;;;8.60;99.90;;;;;;5094287;28;20028;-71
2023/04/07 08:56:25;;;;;;;4.65;4.25;;;8.50;99.90;;;;;;5094736;28;20028;-71
2023/04/07 08:58:51;;;;;;;6.13;5.05;;;8.50;99.90;;;;;;5094614;28;20039;-71
2023/04/07 09:01:18;;;;;;;5.22;4.68;;;8.50;99.90;;;;;;5094739;28;20094;-71
2023/04/07 09:03:45;;;;;;;7.68;4.90;;;8.50;99.90;;;;;;5095030;28;20055;-71
2023/04/07 09:06:11;;;;;;;6.28;4.60;;;8.60;99.90;;;;;;5094134;28;20021;-71
2023/04/07 09:08:36;;;;;;;6.05;5.03;;;8.80;99.90;;;;;;5094310;28;20368;-71
2023/04/07 09:11:02;;;;;;;5.43;4.43;;;8.80;99.90;;;;;;5094315;28;20032;-71
2023/04/07 09:13:28;;;;;;;5.88;4.43;;;8.60;99.90;;;;;;5094503;28;20108;-71
2023/04/07 09:15:53;;;;;;;5.65;5.13;;;8.70;99.90;;;;;;5094480;28;20363;-71
2023/04/07 09:18:19;;;;;;;5.85;4.75;;;8.90;99.90;;;;;;5094117;28;20465;-71
2023/04/07 09:21:02;;;;;;;6.85;4.80;;;9.10;99.90;;;;;;5094461;28;20020;-71
2023/04/07 09:23:31;;;;;;;6.23;4.43;;;9.20;99.90;;;;;;5094447;28;20028;-71
2023/04/07 09:25:58;;;;;;;7.45;4.93;;;9.20;99.90;;;;;;5093917;28;20265;-71
2023/04/07 09:28:24;;;;;;;5.85;4.57;;;9.20;99.90;;;;;;5093890;28;20024;-71
2023/04/07 09:30:52;;;;;;;6.03;4.80;;;9.10;99.90;;;;;;5093091;28;20508;-71
2023/04/07 09:33:26;;;;;;;6.35;4.10;;;9.20;99.90;;;;;;5093542;28;20361;-72
2023/04/07 09:35:52;;;;;;;5.28;4.30;;;9.30;99.90;;;;;;5094290;28;20027;-71
2023/04/07 09:38:18;;;;;;;6.30;4.75;;;9.20;99.90;;;;;;5094308;28;20466;-71
2023/04/07 09:40:43;;;;;;;7.22;4.47;;;9.30;99.90;;;;;;5094246;28;20078;-71
2023/04/07 09:43:15;;;;;;;4.82;3.88;;;9.10;99.90;;;;;;5093832;28;20493;-71
2023/04/07 09:45:41;;;;;;;5.35;4.45;;;9.00;99.90;;;;;;5093689;28;20113;-71
2023/04/07 09:48:16;;;;;;;4.95;4.18;;;9.00;99.90;;;;;;5094118;28;20119;-71
2023/04/07 09:50:44;;;;;;;5.50;4.50;;;9.00;99.90;;;;;;5094844;28;20060;-71
2023/04/07 09:53:10;;;;;;;7.30;4.50;;;9.00;99.90;;;;;;5098059;28;20036;-71
2023/04/07 09:55:38;;;;;;;5.25;4.30;;;8.90;99.90;;;;;;5098164;28;20097;-70
2023/04/07 09:58:05;;;;;;;7.55;3.97;;;8.90;99.90;;;;;;5098051;28;20028;-70
2023/04/07 10:00:31;;;;;;;5.78;4.07;;;8.90;99.90;;;;;;5097827;28;20020;-71
2023/04/07 10:02:57;;;;;;;4.20;3.42;;;8.90;99.90;;;;;;5097511;28;20023;-71
2023/04/07 10:05:24;;;;;;;5.05;3.75;;;9.00;99.90;;;;;;5097613;28;20055;-70
2023/04/07 10:07:50;;;;;;;3.85;3.28;;;9.00;99.90;;;;;;5097407;28;20556;-70
2023/04/07 10:10:16;;;;;;;3.78;3.10;;;8.90;99.90;;;;;;5096714;28;20024;-70
2023/04/07 10:12:42;;;;;;;5.47;3.60;;;9.00;99.90;;;;;;5097940;28;20043;-70
2023/04/07 10:15:10;;;;;;;4.30;3.10;;;9.00;99.90;;;;;;5097421;28;20123;-71
2023/04/07 10:17:38;;;;;;;7.60;3.92;;;9.00;99.90;;;;;;5097060;28;20024;-71
2023/04/07 10:20:05;;;;;;;4.68;2.95;;;8.90;99.90;;;;;;5097315;28;20551;-71
2023/04/07 10:22:32;;;;;;;13.75;3.92;;;8.90;99.90;;;;;;5097477;28;20032;-71
2023/04/07 10:25:03;;;;;;;4.97;3.85;;;8.80;99.90;;;;;;5096780;28;20032;-71
2023/04/07 10:27:32;;;;;;;8.75;4.32;;;8.90;99.90;;;;;;5097402;28;20028;-71
2023/04/07 10:30:00;;;;;;;6.65;4.38;;;9.00;99.90;;;;;;5096371;28;20131;-70
2023/04/07 10:32:25;;;;;;;5.38;3.35;;;9.00;99.90;;;;;;5097025;28;20077;-70
2023/04/07 10:37:28;;;;;;;4.72;4.10;;;8.90;99.90;;;;;;5112007;27;20133;-70
2023/04/07 10:40:26;;;;;;;3.65;3.20;;;9.00;99.90;;;;;;5111963;28;20428;-71
2023/04/07 10:42:52;;;;;;;6.13;3.58;;;8.90;99.90;;;;;;5112155;28;20449;-70
2023/04/07 10:48:23;;;;;;;4.65;3.40;;;8.90;99.90;;;;;;5111939;27;20384;-71
2023/04/07 10:51:13;;;;;;;6.50;3.50;;;8.80;99.90;;;;;;5111634;28;20036;-71
2023/04/07 10:54:15;;;;;;;5.45;3.65;;;8.70;99.90;;;;;;5111819;28;20034;-71
2023/04/07 10:57:03;;;;;;;5.93;3.72;;;8.80;99.90;;;;;;5111784;28;20443;-71
2023/04/07 10:59:30;;;;;;;5.53;3.55;;;9.00;99.90;;;;;;5111212;28;20026;-71
2023/04/07 11:04:52;;;;;;;4.63;3.60;;;9.00;99.90;;;;;;5071385;28;20138;-71
2023/04/07 11:07:19;;;;;;;4.65;3.53;;;8.90;99.90;;;;;;5070766;28;20052;-71
2023/04/07 11:09:45;;;;;;;4.53;3.65;;;8.90;99.90;;;;;;5071084;28;20024;-71
2023/04/07 11:12:26;;;;;;;4.40;3.47;;;8.90;99.90;;;;;;5070945;28;20097;-71
2023/04/07 11:14:52;;;;;;;3.88;3.25;;;8.90;99.90;;;;;;5071442;28;20029;-71
2023/04/07 11:17:18;;;;;;;4.07;3.65;;;8.90;99.90;;;;;;5071173;28;20029;-71
2023/04/07 11:19:52;;;;;;;4.63;3.80;;;8.80;99.90;;;;;;5070837;28;20616;-71
2023/04/07 11:22:18;;;;;;;3.92;3.50;;;8.80;99.90;;;;;;5071377;28;20029;-71
2023/04/07 11:24:45;;;;;;;4.45;3.88;;;8.80;99.90;;;;;;5070362;28;20029;-71
2023/04/07 11:27:13;;;;;;;4.07;3.45;;;8.80;99.90;;;;;;5071044;28;20028;-71
2023/04/07 11:29:39;;;;;;;5.60;3.55;;;8.90;99.90;;;;;;5070875;28;20071;-71
2023/04/07 11:32:05;;;;;;;5.13;4.05;;;9.00;99.90;;;;;;5070885;28;20130;-71
2023/04/07 11:34:32;;;;;;;5.72;3.80;;;9.10;99.90;;;;;;5071116;28;20071;-71
2023/04/07 11:37:17;;;;;;;4.95;4.03;;;9.10;99.90;;;;;;5070133;28;20028;-72
2023/04/07 11:39:42;;;;;;;4.85;3.80;;;9.00;99.90;;;;;;5070710;28;20110;-71
2023/04/07 11:42:08;;;;;;;5.72;3.75;;;9.10;99.90;;;;;;5070895;28;20028;-71
2023/04/07 11:44:33;;;;;;;7.60;4.20;;;8.90;99.90;;;;;;5070024;28;20116;-71
2023/04/07 11:47:02;;;;;;;6.13;4.32;;;9.10;99.90;;;;;;5070826;28;20025;-71
2023/04/07 11:49:28;;;;;;;5.65;4.60;;;9.00;99.90;;;;;;5070179;28;20036;-71
2023/04/07 11:51:59;;;;;;;5.65;4.30;;;9.10;99.90;;;;;;5069911;28;20032;-71
2023/04/07 11:54:25;;;;;;;5.47;4.38;;;9.00;99.90;;;;;;5070176;28;20116;-71
2023/04/07 11:56:54;;;;;;;5.78;4.63;;;9.00;99.90;;;;;;5070539;28;20068;-71
2023/04/07 11:59:21;;;;;;;7.22;4.82;;;9.10;99.90;;;;;;5069979;28;20024;-71
2023/04/07 12:01:48;;;;;;;8.30;4.72;;;9.10;99.90;;;;;;5070211;28;20470;-70
2023/04/07 12:04:16;;;;;;;7.93;5.43;;;9.20;99.90;;;;;;5069308;28;20080;-71
2023/04/07 12:06:42;;;;;;;5.30;4.40;;;9.20;99.90;;;;;;5069348;28;20029;-71
2023/04/07 12:09:24;;;;;;;5.85;4.53;;;9.20;99.90;;;;;;5069679;28;20025;-71
2023/04/07 12:11:50;;;;;;;6.38;4.88;;;9.30;99.90;;;;;;5070343;28;20025;-70
2023/04/07 12:14:15;;;;;;;8.50;5.75;;;9.30;99.90;;;;;;5067082;28;20097;-70
2023/04/07 12:16:41;;;;;;;6.10;4.75;;;9.40;99.90;;;;;;5056966;28;20037;-71
2023/04/07 12:19:07;;;;;;;6.03;5.00;;;9.40;99.90;;;;;;5056467;28;20040;-71
2023/04/07 12:21:32;;;;;;;6.38;5.00;;;9.50;99.90;;;;;;5055851;28;20033;-71
2023/04/07 12:23:58;;;;;;;8.43;5.70;;;9.60;99.90;;;;;;5056391;28;20021;-71
2023/04/07 12:26:24;;;;;;;6.68;4.50;;;9.70;99.90;;;;;;5056069;28;20031;-71
2023/04/07 12:28:50;;;;;;;7.63;4.72;;;9.60;99.90;;;;;;5056787;28;20017;-71
2023/04/07 12:31:15;;;;;;;5.13;4.32;;;9.60;99.90;;;;;;5056009;28;20100;-70
2023/04/07 12:33:41;;;;;;;7.28;4.57;;;9.60;99.90;;;;;;5056736;28;20441;-71
2023/04/07 12:36:06;;;;;;;7.03;5.05;;;9.50;99.90;;;;;;5056237;28;20031;-71
2023/04/07 12:38:32;;;;;;;6.20;4.70;;;9.60;99.90;;;;;;5056067;28;20036;-71
2023/04/07 12:41:02;;;;;;;6.28;4.97;;;9.80;99.90;;;;;;5056334;28;20417;-71
2023/04/07 12:43:28;;;;;;;5.35;4.78;;;9.90;99.90;;;;;;5056116;28;20022;-70
2023/04/07 12:45:54;;;;;;;6.40;4.65;;;9.80;99.90;;;;;;5056166;28;20025;-71
2023/04/07 12:48:20;;;;;;;5.43;4.40;;;10.10;99.90;;;;;;5056040;28;20382;-71
2023/04/07 12:50:45;;;;;;;7.30;4.35;;;10.00;99.90;;;;;;5056184;28;20036;-71
2023/04/07 12:53:11;;;;;;;5.97;4.57;;;9.90;99.90;;;;;;5055882;28;20021;-71
2023/04/07 12:55:36;;;;;;;4.63;3.88;;;10.20;99.90;;;;;;5055994;28;20474;-71